createdAt,value
2019-01-20T00:01:01.869Z,-2.60
2019-01-20T00:03:31.712Z,-2.60
2019-01-20T00:06:02.082Z,-2.60
2019-01-20T00:08:31.729Z,-2.70
2019-01-20T00:11:01.480Z,-2.70
2019-01-20T00:13:31.196Z,-2.70
2019-01-20T00:16:01.177Z,-2.70
2019-01-20T00:18:30.853Z,-2.80
2019-01-20T00:21:00.494Z,-2.80
2019-01-20T00:23:30.146Z,-2.80
2019-01-20T00:25:59.875Z,-2.80
2019-01-20T00:28:29.530Z,-2.90
2019-01-20T00:30:59.261Z,-2.90
2019-01-20T00:33:28.915Z,-2.90
2019-01-20T00:35:58.518Z,-3.00
2019-01-20T00:38:29.076Z,-3.00
2019-01-20T00:40:58.819Z,-3.00
2019-01-20T00:43:28.461Z,-3.00
2019-01-20T00:45:58.133Z,-3.00
2019-01-20T00:48:27.752Z,-3.10
2019-01-20T00:50:57.357Z,-3.10
2019-01-20T00:53:28.123Z,-3.10
2019-01-20T00:55:57.826Z,-3.10
2019-01-20T00:58:27.465Z,-3.10
2019-01-20T01:00:57.178Z,-3.10
2019-01-20T01:03:27.036Z,-3.20
2019-01-20T01:05:56.774Z,-3.20
2019-01-20T01:08:26.362Z,-3.20
2019-01-20T01:10:55.973Z,-3.20
2019-01-20T01:13:25.730Z,-3.20
2019-01-20T01:15:55.335Z,-3.20
2019-01-20T01:18:25.630Z,-3.30
2019-01-20T01:20:55.359Z,-3.30
2019-01-20T01:23:25.643Z,-3.30
2019-01-20T01:25:55.245Z,-3.30
2019-01-20T01:28:24.866Z,-3.30
2019-01-20T01:30:54.460Z,-3.40
2019-01-20T01:33:24.060Z,-3.40
2019-01-20T01:35:53.961Z,-3.40
2019-01-20T01:38:23.609Z,-3.40
2019-01-20T01:40:53.205Z,-3.40
2019-01-20T01:43:23.070Z,-3.50
2019-01-20T01:45:52.661Z,-3.50
2019-01-20T01:48:22.301Z,-3.50
2019-01-20T01:50:52.121Z,-3.50
2019-01-20T01:53:22.033Z,-3.50
2019-01-20T01:55:51.667Z,-3.60
2019-01-20T01:58:21.264Z,-3.60
2019-01-20T02:00:50.998Z,-3.60
2019-01-20T02:03:20.630Z,-3.60
2019-01-20T02:05:50.297Z,-3.70
2019-01-20T02:08:19.891Z,-3.70
2019-01-20T02:10:49.493Z,-3.80
2019-01-20T02:13:19.301Z,-3.80
2019-01-20T02:15:49.022Z,-3.80
2019-01-20T02:18:18.733Z,-3.90
2019-01-20T02:20:48.370Z,-3.90
2019-01-20T02:23:18.017Z,-3.90
2019-01-20T02:25:47.741Z,-4.00
2019-01-20T02:28:17.381Z,-4.00
2019-01-20T02:30:47.009Z,-4.00
2019-01-20T02:33:16.663Z,-4.10
2019-01-20T02:35:46.302Z,-4.10
2019-01-20T02:38:15.901Z,-4.10
2019-01-20T02:40:45.555Z,-4.10
2019-01-20T02:43:15.239Z,-4.20
2019-01-20T02:45:44.840Z,-4.20
2019-01-20T02:48:14.482Z,-4.30
2019-01-20T02:50:44.273Z,-4.30
2019-01-20T02:53:13.968Z,-4.30
2019-01-20T02:55:43.765Z,-4.30
2019-01-20T02:58:13.384Z,-4.40
2019-01-20T03:00:42.973Z,-4.40
2019-01-20T03:03:12.708Z,-4.40
2019-01-20T03:05:42.341Z,-4.40
2019-01-20T03:08:12.139Z,-4.40
2019-01-20T03:10:41.796Z,-4.40
2019-01-20T03:13:12.123Z,-4.50
2019-01-20T03:15:41.869Z,-4.50
2019-01-20T03:18:12.081Z,-4.50
2019-01-20T03:20:41.830Z,-4.50
2019-01-20T03:23:11.465Z,-4.60
2019-01-20T03:25:41.146Z,-4.60
2019-01-20T03:28:10.809Z,-4.60
2019-01-20T03:30:40.419Z,-4.60
2019-01-20T03:33:12.900Z,-4.70
2019-01-20T03:35:42.503Z,-4.70
2019-01-20T03:38:12.088Z,-4.80
2019-01-20T03:40:42.505Z,-4.80
2019-01-20T03:43:12.265Z,-4.80
2019-01-20T03:45:41.955Z,-4.80
2019-01-20T03:48:11.580Z,-4.90
2019-01-20T03:50:43.001Z,-4.90
2019-01-20T03:53:12.730Z,-4.90
2019-01-20T03:55:42.418Z,-4.90
2019-01-20T03:58:12.813Z,-4.90
2019-01-20T04:00:42.417Z,-5.00
2019-01-20T04:03:12.002Z,-5.00
2019-01-20T04:05:41.691Z,-5.00
2019-01-20T04:08:11.862Z,-5.00
2019-01-20T04:10:41.528Z,-5.00
2019-01-20T04:13:11.328Z,-5.00
2019-01-20T04:15:40.961Z,-5.00
2019-01-20T04:18:10.779Z,-5.00
2019-01-20T04:20:40.585Z,-5.10
2019-01-20T04:23:10.177Z,-5.10
2019-01-20T04:25:39.776Z,-5.10
2019-01-20T04:28:09.673Z,-5.10
2019-01-20T04:30:39.403Z,-5.10
2019-01-20T04:33:09.014Z,-5.10
2019-01-20T04:35:38.921Z,-5.20
2019-01-20T04:38:08.622Z,-5.20
2019-01-20T04:40:38.230Z,-5.20
2019-01-20T04:43:08.168Z,-5.20
2019-01-20T04:45:37.762Z,-5.30
2019-01-20T04:48:07.352Z,-5.30
2019-01-20T04:50:36.990Z,-5.30
2019-01-20T04:53:06.701Z,-5.30
2019-01-20T04:55:36.351Z,-5.30
2019-01-20T04:58:06.057Z,-5.40
2019-01-20T05:00:35.689Z,-5.40
2019-01-20T05:03:05.470Z,-5.40
2019-01-20T05:05:35.127Z,-5.40
2019-01-20T05:08:05.629Z,-5.40
2019-01-20T05:10:36.121Z,-5.40
2019-01-20T05:13:05.915Z,-5.50
2019-01-20T05:15:35.557Z,-5.50
2019-01-20T05:18:05.161Z,-5.50
2019-01-20T05:20:34.796Z,-5.50
2019-01-20T05:23:05.224Z,-5.40
2019-01-20T05:25:34.830Z,-5.50
2019-01-20T05:28:04.437Z,-5.50
2019-01-20T05:30:34.080Z,-5.50
2019-01-20T05:33:03.878Z,-5.50
2019-01-20T05:35:33.472Z,-5.60
2019-01-20T05:38:03.114Z,-5.60
2019-01-20T05:40:33.045Z,-5.50
2019-01-20T05:43:02.712Z,-5.60
2019-01-20T05:45:32.620Z,-5.60
2019-01-20T05:48:02.270Z,-5.60
2019-01-20T05:50:31.923Z,-5.60
2019-01-20T05:53:01.714Z,-5.70
2019-01-20T05:55:31.317Z,-5.60
2019-01-20T05:58:01.063Z,-5.70
2019-01-20T06:00:31.266Z,-5.70
2019-01-20T06:03:01.873Z,-5.80
2019-01-20T06:05:31.610Z,-5.70
2019-01-20T06:08:01.204Z,-5.70
2019-01-20T06:10:30.924Z,-5.80
2019-01-20T06:13:00.558Z,-5.80
2019-01-20T06:15:30.347Z,-5.80
2019-01-20T06:18:00.056Z,-5.80
2019-01-20T06:20:29.698Z,-5.80
2019-01-20T06:22:59.469Z,-5.80
2019-01-20T06:25:29.137Z,-5.80
2019-01-20T06:27:59.744Z,-5.90
2019-01-20T06:30:30.687Z,-5.90
2019-01-20T06:33:00.328Z,-5.90
2019-01-20T06:35:30.338Z,-5.90
2019-01-20T06:38:00.373Z,-5.90
2019-01-20T06:40:29.965Z,-5.90
2019-01-20T06:43:02.311Z,-6.00
2019-01-20T06:45:31.746Z,-5.90
2019-01-20T06:48:01.450Z,-6.00
2019-01-20T06:50:31.458Z,-6.00
2019-01-20T06:53:01.291Z,-6.00
2019-01-20T06:55:31.596Z,-6.00
2019-01-20T06:58:01.237Z,-6.00
2019-01-20T07:00:30.917Z,-6.00
2019-01-20T07:03:00.523Z,-6.00
2019-01-20T07:05:30.361Z,-6.10
2019-01-20T07:07:59.993Z,-6.10
2019-01-20T07:10:29.716Z,-6.10
2019-01-20T07:12:59.318Z,-6.10
2019-01-20T07:15:29.122Z,-6.10
2019-01-20T07:17:58.933Z,-6.10
2019-01-20T07:20:28.573Z,-6.10
2019-01-20T07:22:58.300Z,-6.10
2019-01-20T07:25:27.944Z,-6.00
2019-01-20T07:27:57.589Z,-6.00
2019-01-20T07:30:27.176Z,-6.00
2019-01-20T07:32:56.773Z,-6.00
2019-01-20T07:35:26.390Z,-5.90
2019-01-20T07:37:56.090Z,-5.90
2019-01-20T07:40:25.726Z,-5.80
2019-01-20T07:42:55.460Z,-5.70
2019-01-20T07:45:25.059Z,-5.50
2019-01-20T07:47:54.666Z,-5.30
2019-01-20T07:50:24.922Z,-5.00
2019-01-20T07:52:54.509Z,-4.80
2019-01-20T07:55:24.239Z,-4.50
2019-01-20T07:57:53.880Z,-4.20
2019-01-20T08:00:24.495Z,-3.90
2019-01-20T08:02:54.110Z,-3.60
2019-01-20T08:05:23.709Z,-3.30
2019-01-20T08:07:53.367Z,-2.90
2019-01-20T08:10:25.587Z,-2.50
2019-01-20T08:12:55.228Z,-2.10
2019-01-20T08:15:24.875Z,-1.70
2019-01-20T08:17:54.504Z,-1.30
2019-01-20T08:20:24.715Z,-0.80
2019-01-20T08:22:54.353Z,-0.30
2019-01-20T08:25:24.041Z,0.10
2019-01-20T08:27:54.727Z,0.40
2019-01-20T08:30:25.782Z,0.70
2019-01-20T08:32:55.375Z,0.70
2019-01-20T08:35:25.023Z,0.60
2019-01-20T08:37:54.662Z,0.50
2019-01-20T08:40:27.166Z,0.30
2019-01-20T08:42:56.776Z,0.10
2019-01-20T08:45:29.681Z,-0.10
2019-01-20T08:48:03.999Z,-0.30
2019-01-20T08:50:33.633Z,-0.50
2019-01-20T08:53:03.340Z,-0.70
2019-01-20T08:55:32.977Z,-0.90
2019-01-20T08:58:02.577Z,-1.00
2019-01-20T09:00:32.209Z,-1.10
2019-01-20T09:03:01.962Z,-1.20
2019-01-20T09:05:31.553Z,-1.30
2019-01-20T09:08:01.158Z,-1.30
2019-01-20T09:10:31.274Z,-1.30
2019-01-20T09:13:00.945Z,-1.40
2019-01-20T09:15:30.618Z,-1.40
2019-01-20T09:18:01.188Z,-1.40
2019-01-20T09:20:30.885Z,-1.40
2019-01-20T09:23:00.554Z,-1.30
2019-01-20T09:25:30.226Z,-1.30
2019-01-20T09:28:00.021Z,-1.20
2019-01-20T09:30:29.780Z,-1.20
2019-01-20T09:32:59.423Z,-1.20
2019-01-20T09:35:29.066Z,-1.10
2019-01-20T09:37:58.738Z,-1.00
2019-01-20T09:40:28.457Z,-1.00
2019-01-20T09:42:58.093Z,-1.00
2019-01-20T09:45:30.698Z,-0.90
2019-01-20T09:48:00.416Z,-0.80
2019-01-20T09:50:30.041Z,-0.80
2019-01-20T09:52:59.638Z,-0.80
2019-01-20T09:55:29.289Z,-0.70
2019-01-20T09:57:58.911Z,-0.70
2019-01-20T10:00:33.732Z,-0.60
2019-01-20T10:03:03.390Z,-0.60
2019-01-20T10:05:33.718Z,-0.50
2019-01-20T10:08:03.378Z,-0.50
2019-01-20T10:10:33.161Z,-0.50
2019-01-20T10:13:03.164Z,-0.40
2019-01-20T10:15:32.793Z,-0.40
2019-01-20T10:18:02.403Z,-0.30
2019-01-20T10:20:32.785Z,-0.30
2019-01-20T10:23:02.396Z,-0.20
2019-01-20T10:25:32.004Z,-0.20
2019-01-20T10:28:01.923Z,-0.10
2019-01-20T10:30:33.494Z,-0.10
2019-01-20T10:33:03.543Z,-0.10
2019-01-20T10:35:34.961Z,-0.10
2019-01-20T10:38:07.161Z,0.00
2019-01-20T10:40:36.903Z,0.00
2019-01-20T10:43:06.755Z,0.10
2019-01-20T10:45:36.496Z,0.10
2019-01-20T10:48:06.159Z,0.20
2019-01-20T10:50:36.576Z,0.20
2019-01-20T10:53:06.270Z,0.30
2019-01-20T10:55:36.117Z,0.40
2019-01-20T10:58:05.705Z,0.40
2019-01-20T11:00:37.839Z,0.50
2019-01-20T11:03:07.465Z,0.60
2019-01-20T11:05:37.111Z,0.70
2019-01-20T11:08:06.733Z,0.80
2019-01-20T11:10:36.371Z,0.80
2019-01-20T11:13:05.980Z,0.80
2019-01-20T11:15:36.891Z,0.80
2019-01-20T11:18:06.626Z,0.90
2019-01-20T11:20:36.209Z,0.90
2019-01-20T11:23:05.987Z,0.90
2019-01-20T11:25:38.965Z,0.90
2019-01-20T11:28:08.553Z,1.00
2019-01-20T11:30:38.213Z,1.00
2019-01-20T11:33:08.226Z,1.00
2019-01-20T11:35:38.130Z,1.00
2019-01-20T11:38:08.449Z,1.00
2019-01-20T11:40:38.331Z,1.00
2019-01-20T11:43:08.031Z,1.00
2019-01-20T11:45:37.654Z,1.00
2019-01-20T11:48:07.284Z,1.00
2019-01-20T11:50:37.065Z,1.00
2019-01-20T11:53:06.668Z,0.90
2019-01-20T11:55:36.307Z,0.90
2019-01-20T11:58:06.311Z,0.90
2019-01-20T12:00:36.080Z,0.90
2019-01-20T12:03:05.773Z,0.90
2019-01-20T12:05:36.313Z,0.90
2019-01-20T12:08:06.927Z,0.90
2019-01-20T12:10:36.899Z,0.90
2019-01-20T12:13:08.197Z,0.90
2019-01-20T12:15:37.849Z,0.90
2019-01-20T12:18:07.578Z,1.00
2019-01-20T12:20:37.865Z,0.90
2019-01-20T12:23:07.500Z,1.00
2019-01-20T12:25:37.269Z,1.00
2019-01-20T12:28:06.982Z,1.00
2019-01-20T12:30:38.918Z,1.00
2019-01-20T12:33:08.511Z,1.00
2019-01-20T12:35:38.857Z,1.10
2019-01-20T12:38:08.568Z,1.10
2019-01-20T12:40:41.074Z,1.10
2019-01-20T12:43:10.741Z,1.10
2019-01-20T12:45:41.068Z,1.10
2019-01-20T12:48:10.658Z,1.20
2019-01-20T12:50:40.946Z,1.20
2019-01-20T12:53:10.739Z,1.30
2019-01-20T12:55:40.328Z,1.40
2019-01-20T12:58:09.945Z,1.40
2019-01-20T13:00:39.739Z,1.50
2019-01-20T13:03:09.405Z,1.50
2019-01-20T13:05:39.043Z,1.60
2019-01-20T13:08:08.706Z,1.70
2019-01-20T13:10:38.337Z,1.80
2019-01-20T13:13:07.921Z,1.80
2019-01-20T13:15:37.628Z,1.90
2019-01-20T13:18:07.590Z,2.00
2019-01-20T13:20:37.181Z,2.00
2019-01-20T13:23:07.533Z,2.00
2019-01-20T13:25:37.341Z,2.10
2019-01-20T13:28:06.943Z,2.10
2019-01-20T13:30:36.520Z,2.10
2019-01-20T13:33:06.145Z,2.10
2019-01-20T13:35:35.801Z,2.10
2019-01-20T13:38:08.497Z,2.10
2019-01-20T13:40:44.197Z,2.10
2019-01-20T13:43:13.846Z,2.10
2019-01-20T13:45:43.581Z,2.10
2019-01-20T13:48:13.214Z,2.10
2019-01-20T13:50:43.007Z,2.10
2019-01-20T13:53:13.814Z,2.10
2019-01-20T13:55:44.129Z,2.10
2019-01-20T13:58:13.728Z,2.10
2019-01-20T14:00:43.355Z,2.10
2019-01-20T14:03:12.982Z,2.10
2019-01-20T14:05:42.645Z,2.10
2019-01-20T14:08:12.233Z,2.10
2019-01-20T14:10:41.818Z,2.00
2019-01-20T14:13:11.834Z,2.00
2019-01-20T14:15:41.417Z,2.00
2019-01-20T14:18:11.054Z,2.00
2019-01-20T14:20:40.710Z,2.00
2019-01-20T14:23:10.337Z,2.00
2019-01-20T14:25:40.825Z,2.00
2019-01-20T14:28:11.305Z,1.90
2019-01-20T14:30:40.893Z,2.00
2019-01-20T14:33:10.476Z,1.90
2019-01-20T14:35:40.264Z,2.00
2019-01-20T14:38:09.953Z,2.00
2019-01-20T14:40:40.313Z,2.00
2019-01-20T14:43:10.005Z,2.00
2019-01-20T14:45:39.589Z,1.90
2019-01-20T14:48:09.202Z,1.90
2019-01-20T14:50:38.897Z,1.90
2019-01-20T14:53:08.513Z,1.80
2019-01-20T14:55:38.187Z,1.80
2019-01-20T14:58:07.809Z,1.80
2019-01-20T15:00:38.237Z,1.80
2019-01-20T15:03:07.928Z,1.70
2019-01-20T15:05:37.628Z,1.70
2019-01-20T15:08:07.398Z,1.60
2019-01-20T15:10:37.102Z,1.60
2019-01-20T15:13:06.942Z,1.60
2019-01-20T15:15:38.590Z,1.50
2019-01-20T15:18:08.340Z,1.50
2019-01-20T15:20:38.023Z,1.50
2019-01-20T15:23:07.746Z,1.40
2019-01-20T15:25:37.408Z,1.40
2019-01-20T15:28:07.261Z,1.40
2019-01-20T15:30:36.990Z,1.40
2019-01-20T15:33:06.617Z,1.40
2019-01-20T15:35:36.254Z,1.40
2019-01-20T15:38:05.885Z,1.40
2019-01-20T15:40:35.458Z,1.50
2019-01-20T15:43:05.762Z,1.50
2019-01-20T15:45:35.382Z,1.40
2019-01-20T15:48:05.090Z,1.50
2019-01-20T15:50:34.795Z,1.50
2019-01-20T15:53:04.452Z,1.50
2019-01-20T15:55:34.113Z,1.50
2019-01-20T15:58:03.780Z,1.50
2019-01-20T16:00:33.381Z,1.50
2019-01-20T16:03:03.098Z,1.50
2019-01-20T16:05:33.436Z,1.50
2019-01-20T16:08:03.162Z,1.50
2019-01-20T16:10:32.754Z,1.50
2019-01-20T16:13:02.341Z,1.50
2019-01-20T16:15:33.661Z,1.50
2019-01-20T16:18:03.265Z,1.40
2019-01-20T16:20:32.833Z,1.40
2019-01-20T16:23:02.444Z,1.40
2019-01-20T16:25:33.990Z,1.40
2019-01-20T16:28:03.781Z,1.40
2019-01-20T16:30:35.245Z,1.40
2019-01-20T16:33:04.957Z,1.40
2019-01-20T16:35:34.581Z,1.40
2019-01-20T16:38:04.306Z,1.40
2019-01-20T16:40:33.981Z,1.40
2019-01-20T16:43:03.753Z,1.40
2019-01-20T16:45:41.972Z,1.40
2019-01-20T16:48:09.727Z,1.30
2019-01-20T16:50:39.981Z,1.30
2019-01-20T16:53:09.569Z,1.30
2019-01-20T16:55:40.212Z,1.30
2019-01-20T16:58:09.985Z,1.30
2019-01-20T17:00:40.845Z,1.30
2019-01-20T17:03:11.130Z,1.30
2019-01-20T17:05:40.813Z,1.30
2019-01-20T17:08:10.483Z,1.20
2019-01-20T17:10:40.456Z,1.20
2019-01-20T17:13:10.083Z,1.20
2019-01-20T17:15:42.011Z,1.10
2019-01-20T17:18:12.386Z,1.10
2019-01-20T17:20:42.020Z,1.10
2019-01-20T17:23:11.702Z,1.00
2019-01-20T17:25:41.514Z,1.00
2019-01-20T17:28:11.145Z,1.00
2019-01-20T17:30:41.541Z,1.00
2019-01-20T17:33:11.537Z,1.00
2019-01-20T17:35:41.249Z,1.00
2019-01-20T17:38:11.585Z,1.10
2019-01-20T17:40:41.486Z,1.10
2019-01-20T17:43:11.173Z,1.10
2019-01-20T17:45:47.459Z,1.10
2019-01-20T17:48:13.596Z,1.00
2019-01-20T17:50:43.311Z,1.00
2019-01-20T17:53:13.412Z,0.90
2019-01-20T17:55:43.093Z,0.90
2019-01-20T17:58:12.818Z,0.90
2019-01-20T18:00:44.128Z,0.90
2019-01-20T18:03:13.742Z,0.90
2019-01-20T18:05:43.351Z,0.90
2019-01-20T18:08:12.989Z,0.90
2019-01-20T18:10:42.633Z,0.90
2019-01-20T18:13:13.104Z,0.90
2019-01-20T18:15:42.690Z,0.90
2019-01-20T18:18:12.353Z,0.90
2019-01-20T18:20:42.069Z,1.00
2019-01-20T18:23:11.708Z,1.00
2019-01-20T18:25:42.001Z,1.00
2019-01-20T18:28:11.590Z,1.00
2019-01-20T18:30:41.365Z,1.00
2019-01-20T18:33:11.078Z,1.00
2019-01-20T18:35:40.693Z,1.00
2019-01-20T18:38:11.021Z,1.00
2019-01-20T18:40:40.807Z,1.00
2019-01-20T18:43:11.209Z,1.00
2019-01-20T18:45:40.854Z,1.00
2019-01-20T18:48:10.497Z,0.90
2019-01-20T18:50:40.927Z,0.90
2019-01-20T18:53:10.625Z,0.80
2019-01-20T18:55:40.264Z,0.80
2019-01-20T18:58:09.987Z,0.80
2019-01-20T19:00:42.744Z,0.70
2019-01-20T19:03:12.368Z,0.70
2019-01-20T19:05:41.969Z,0.70
2019-01-20T19:08:11.566Z,0.70
2019-01-20T19:10:41.210Z,0.70
2019-01-20T19:13:10.839Z,0.70
2019-01-20T19:15:40.442Z,0.70
2019-01-20T19:18:10.034Z,0.70
2019-01-20T19:20:39.737Z,0.70
2019-01-20T19:23:09.317Z,0.70
2019-01-20T19:25:39.148Z,0.70
2019-01-20T19:28:08.817Z,0.70
2019-01-20T19:30:38.446Z,0.70
2019-01-20T19:33:08.877Z,0.70
2019-01-20T19:35:38.469Z,0.70
2019-01-20T19:38:08.142Z,0.70
2019-01-20T19:40:37.834Z,0.70
2019-01-20T19:43:07.470Z,0.70
2019-01-20T19:45:37.110Z,0.60
2019-01-20T19:48:06.745Z,0.60
2019-01-20T19:50:36.362Z,0.50
2019-01-20T19:53:05.964Z,0.50
2019-01-20T19:55:35.760Z,0.50
2019-01-20T19:58:05.350Z,0.50
2019-01-20T20:00:34.943Z,0.50
2019-01-20T20:03:04.678Z,0.50
2019-01-20T20:05:34.345Z,0.40
2019-01-20T20:08:04.128Z,0.40
2019-01-20T20:10:33.748Z,0.40
2019-01-20T20:13:03.343Z,0.40
2019-01-20T20:15:33.050Z,0.40
2019-01-20T20:18:02.658Z,0.40
2019-01-20T20:20:33.347Z,0.40
2019-01-20T20:23:02.985Z,0.40
2019-01-20T20:25:32.578Z,0.50
2019-01-20T20:28:02.168Z,0.50
2019-01-20T20:30:35.543Z,0.50
2019-01-20T20:33:05.445Z,0.50
2019-01-20T20:35:35.083Z,0.50
2019-01-20T20:38:05.419Z,0.50
2019-01-20T20:40:35.021Z,0.50
2019-01-20T20:43:04.786Z,0.50
2019-01-20T20:45:34.560Z,0.50
2019-01-20T20:48:04.346Z,0.60
2019-01-20T20:50:33.942Z,0.60
2019-01-20T20:53:03.557Z,0.60
2019-01-20T20:55:33.249Z,0.60
2019-01-20T20:58:02.927Z,0.60
2019-01-20T21:00:35.819Z,0.60
2019-01-20T21:03:08.650Z,0.60
2019-01-20T21:05:38.285Z,0.70
2019-01-20T21:08:09.048Z,0.60
2019-01-20T21:10:38.706Z,0.70
2019-01-20T21:13:08.434Z,0.70
2019-01-20T21:15:38.150Z,0.70
2019-01-20T21:18:07.742Z,0.70
2019-01-20T21:20:37.325Z,0.70
2019-01-20T21:23:12.027Z,0.70
2019-01-20T21:25:38.425Z,0.80
2019-01-20T21:28:08.043Z,0.80
2019-01-20T21:30:39.140Z,0.80
2019-01-20T21:33:09.069Z,0.80
2019-01-20T21:35:38.706Z,0.80
2019-01-20T21:38:09.069Z,0.90
2019-01-20T21:40:38.669Z,0.90
2019-01-20T21:43:08.969Z,0.90
2019-01-20T21:45:38.721Z,0.90
2019-01-20T21:48:08.381Z,0.90
2019-01-20T21:50:38.078Z,0.90
2019-01-20T21:53:07.797Z,0.90
2019-01-20T21:55:37.421Z,1.00
2019-01-20T21:58:07.070Z,0.90
2019-01-20T22:00:36.705Z,0.90
2019-01-20T22:03:06.304Z,1.00
2019-01-20T22:05:35.884Z,0.90
2019-01-20T22:08:06.542Z,1.00
2019-01-20T22:10:36.130Z,1.00
2019-01-20T22:13:05.745Z,1.00
2019-01-20T22:15:35.681Z,1.00
2019-01-20T22:18:05.278Z,1.00
2019-01-20T22:20:34.878Z,1.00
2019-01-20T22:23:04.511Z,1.00
2019-01-20T22:25:34.104Z,1.00
2019-01-20T22:28:03.862Z,1.00
2019-01-20T22:30:33.480Z,1.00
2019-01-20T22:33:03.113Z,1.00
2019-01-20T22:35:32.906Z,1.00
2019-01-20T22:38:02.537Z,1.00
2019-01-20T22:40:32.420Z,1.10
2019-01-20T22:43:02.010Z,1.10
2019-01-20T22:45:31.762Z,1.10
2019-01-20T22:48:01.389Z,1.10
2019-01-20T22:50:31.327Z,1.10
2019-01-20T22:53:01.081Z,1.20
2019-01-20T22:55:30.716Z,1.10
2019-01-20T22:58:00.400Z,1.20
2019-01-20T23:00:45.972Z,1.20
2019-01-20T23:03:15.813Z,1.20
2019-01-20T23:05:45.519Z,1.20
2019-01-20T23:08:15.167Z,1.20
2019-01-20T23:10:44.810Z,1.20
2019-01-20T23:13:14.467Z,1.20
2019-01-20T23:15:44.338Z,1.20
2019-01-20T23:18:14.037Z,1.20
2019-01-20T23:20:43.847Z,1.20
2019-01-20T23:23:13.440Z,1.20
2019-01-20T23:25:43.246Z,1.20
2019-01-20T23:28:12.918Z,1.30
2019-01-20T23:30:42.565Z,1.20
2019-01-20T23:33:12.220Z,1.30
2019-01-20T23:35:41.893Z,1.30
2019-01-20T23:38:11.542Z,1.30
2019-01-20T23:40:41.130Z,1.30
2019-01-20T23:43:10.891Z,1.30
2019-01-20T23:45:40.713Z,1.20
2019-01-20T23:48:10.335Z,1.20
2019-01-20T23:50:41.027Z,1.20
2019-01-20T23:53:10.670Z,1.20
2019-01-20T23:55:40.456Z,1.20
2019-01-20T23:58:10.097Z,1.20
